createdAt,value
2018-07-08T00:00:56.430Z,15.51
2018-07-08T00:01:56.358Z,15.42
2018-07-08T00:02:56.274Z,15.42
2018-07-08T00:03:56.209Z,15.41
2018-07-08T00:04:56.132Z,15.52
2018-07-08T00:05:56.062Z,15.39
2018-07-08T00:06:55.981Z,15.52
2018-07-08T00:07:55.914Z,15.43
2018-07-08T00:08:55.834Z,15.46
2018-07-08T00:09:55.767Z,15.48
2018-07-08T00:10:55.687Z,15.51
2018-07-08T00:11:55.616Z,15.52
2018-07-08T00:12:55.546Z,15.51
2018-07-08T00:13:55.470Z,15.55
2018-07-08T00:14:55.384Z,15.55
2018-07-08T00:15:55.320Z,15.57
2018-07-08T00:16:55.238Z,15.46
2018-07-08T00:17:55.171Z,15.49
2018-07-08T00:18:55.088Z,15.48
2018-07-08T00:19:55.021Z,15.53
2018-07-08T00:20:54.941Z,15.53
2018-07-08T00:21:54.874Z,15.48
2018-07-08T00:22:54.791Z,15.52
2018-07-08T00:23:54.725Z,15.41
2018-07-08T00:24:54.644Z,15.42
2018-07-08T00:25:54.577Z,15.49
2018-07-08T00:26:54.496Z,15.52
2018-07-08T00:27:54.430Z,15.53
2018-07-08T00:28:54.345Z,15.57
2018-07-08T00:29:54.278Z,15.55
2018-07-08T00:30:54.198Z,15.53
2018-07-08T00:31:54.129Z,15.52
2018-07-08T00:32:54.048Z,15.57
2018-07-08T00:33:53.980Z,15.49
2018-07-08T00:34:53.898Z,15.46
2018-07-08T00:35:53.833Z,15.57
2018-07-08T00:36:53.749Z,15.51
2018-07-08T00:37:53.684Z,15.55
2018-07-08T00:38:53.601Z,15.55
2018-07-08T00:39:53.564Z,15.60
2018-07-08T00:40:53.452Z,15.52
2018-07-08T00:41:53.389Z,15.53
2018-07-08T00:42:53.305Z,15.57
2018-07-08T00:43:53.244Z,15.60
2018-07-08T00:44:53.156Z,15.55
2018-07-08T00:45:53.088Z,15.59
2018-07-08T00:46:53.005Z,15.57
2018-07-08T00:47:52.936Z,15.57
2018-07-08T00:48:52.864Z,15.57
2018-07-08T00:49:52.792Z,15.51
2018-07-08T00:50:52.708Z,15.52
2018-07-08T00:51:52.639Z,15.53
2018-07-08T00:52:52.557Z,15.59
2018-07-08T00:53:52.530Z,15.59
2018-07-08T00:54:52.407Z,15.52
2018-07-08T00:55:52.343Z,15.46
2018-07-08T00:56:52.259Z,15.49
2018-07-08T00:57:52.192Z,15.55
2018-07-08T00:58:52.112Z,15.49
2018-07-08T00:59:52.045Z,15.52
2018-07-08T01:00:51.963Z,15.55
2018-07-08T01:01:51.897Z,15.48
2018-07-08T01:02:51.816Z,15.41
2018-07-08T01:03:51.746Z,15.34
2018-07-08T01:04:51.668Z,15.39
2018-07-08T01:05:51.600Z,15.35
2018-07-08T01:06:51.518Z,15.33
2018-07-08T01:07:51.460Z,15.15
2018-07-08T01:08:51.427Z,15.08
2018-07-08T01:09:51.306Z,14.95
2018-07-08T01:10:51.219Z,14.87
2018-07-08T01:11:51.149Z,14.80
2018-07-08T01:12:51.070Z,14.74
2018-07-08T01:13:51.004Z,14.71
2018-07-08T01:14:50.927Z,14.65
2018-07-08T01:15:50.852Z,14.61
2018-07-08T01:16:50.769Z,14.61
2018-07-08T01:17:50.701Z,14.57
2018-07-08T01:18:50.622Z,14.59
2018-07-08T01:19:50.554Z,14.54
2018-07-08T01:20:50.468Z,14.47
2018-07-08T01:21:50.402Z,14.44
2018-07-08T01:22:50.323Z,14.44
2018-07-08T01:23:50.256Z,14.42
2018-07-08T01:24:50.176Z,14.54
2018-07-08T01:25:50.106Z,14.35
2018-07-08T01:26:50.025Z,14.44
2018-07-08T01:27:49.958Z,14.39
2018-07-08T01:28:49.873Z,14.34
2018-07-08T01:29:49.809Z,14.32
2018-07-08T01:30:49.721Z,14.46
2018-07-08T01:31:49.650Z,14.46
2018-07-08T01:32:49.575Z,14.31
2018-07-08T01:33:49.510Z,14.29
2018-07-08T01:34:49.425Z,14.27
2018-07-08T01:35:49.356Z,14.27
2018-07-08T01:36:49.275Z,14.24
2018-07-08T01:37:49.209Z,14.31
2018-07-08T01:38:49.124Z,14.16
2018-07-08T01:39:49.061Z,14.24
2018-07-08T01:40:48.975Z,14.13
2018-07-08T01:41:48.908Z,14.14
2018-07-08T01:42:48.824Z,14.17
2018-07-08T01:43:48.756Z,14.11
2018-07-08T01:44:48.674Z,14.01
2018-07-08T01:45:48.610Z,14.13
2018-07-08T01:46:48.525Z,14.07
2018-07-08T01:47:48.455Z,14.03
2018-07-08T01:48:48.375Z,14.03
2018-07-08T01:49:48.308Z,13.98
2018-07-08T01:50:48.223Z,13.98
2018-07-08T01:51:48.157Z,13.99
2018-07-08T01:52:48.074Z,13.99
2018-07-08T01:53:48.010Z,13.94
2018-07-08T01:54:47.926Z,13.83
2018-07-08T01:55:47.857Z,13.91
2018-07-08T01:56:47.779Z,13.84
2018-07-08T01:57:47.713Z,13.96
2018-07-08T01:58:47.625Z,13.92
2018-07-08T01:59:47.556Z,13.94
2018-07-08T02:00:47.472Z,13.98
2018-07-08T02:01:47.407Z,14.03
2018-07-08T02:02:47.321Z,14.03
2018-07-08T02:03:47.255Z,14.03
2018-07-08T02:04:47.175Z,14.07
2018-07-08T02:05:47.113Z,14.05
2018-07-08T02:06:47.019Z,14.11
2018-07-08T02:07:46.953Z,14.11
2018-07-08T02:08:46.876Z,14.16
2018-07-08T02:09:46.803Z,14.24
2018-07-08T02:10:46.721Z,14.17
2018-07-08T02:11:46.652Z,14.20
2018-07-08T02:12:46.569Z,14.24
2018-07-08T02:13:46.502Z,14.20
2018-07-08T02:14:46.420Z,14.19
2018-07-08T02:15:46.352Z,14.21
2018-07-08T02:16:46.273Z,14.20
2018-07-08T02:17:46.200Z,14.14
2018-07-08T02:18:46.121Z,14.16
2018-07-08T02:19:46.056Z,14.09
2018-07-08T02:20:45.972Z,14.01
2018-07-08T02:21:45.900Z,13.98
2018-07-08T02:22:45.822Z,13.99
2018-07-08T02:23:45.750Z,13.95
2018-07-08T02:24:45.670Z,13.92
2018-07-08T02:25:45.600Z,13.92
2018-07-08T02:26:45.521Z,13.95
2018-07-08T02:27:45.448Z,13.98
2018-07-08T02:28:45.371Z,13.96
2018-07-08T02:29:45.297Z,13.89
2018-07-08T02:30:45.215Z,13.92
2018-07-08T02:31:45.148Z,13.96
2018-07-08T02:32:45.073Z,13.96
2018-07-08T02:33:44.995Z,13.92
2018-07-08T02:34:44.915Z,13.95
2018-07-08T02:35:44.849Z,13.87
2018-07-08T02:36:44.766Z,13.83
2018-07-08T02:37:44.691Z,13.80
2018-07-08T02:38:44.619Z,13.81
2018-07-08T02:39:44.544Z,13.77
2018-07-08T02:40:44.460Z,13.68
2018-07-08T02:41:44.392Z,13.70
2018-07-08T02:42:44.309Z,13.76
2018-07-08T02:43:44.243Z,13.76
2018-07-08T02:44:44.161Z,13.74
2018-07-08T02:45:44.095Z,13.61
2018-07-08T02:46:44.004Z,13.56
2018-07-08T02:47:43.938Z,13.59
2018-07-08T02:48:43.860Z,13.48
2018-07-08T02:49:43.793Z,13.48
2018-07-08T02:50:43.712Z,13.40
2018-07-08T02:51:43.650Z,13.44
2018-07-08T02:52:43.562Z,13.41
2018-07-08T02:53:43.494Z,13.40
2018-07-08T02:54:43.408Z,13.38
2018-07-08T02:55:43.337Z,13.41
2018-07-08T02:56:43.263Z,13.45
2018-07-08T02:57:43.182Z,13.44
2018-07-08T02:58:43.105Z,13.37
2018-07-08T02:59:43.036Z,13.41
2018-07-08T03:00:42.951Z,13.38
2018-07-08T03:01:42.887Z,13.43
2018-07-08T03:02:42.805Z,13.43
2018-07-08T03:03:42.735Z,13.50
2018-07-08T03:04:42.650Z,13.50
2018-07-08T03:05:42.581Z,13.48
2018-07-08T03:06:42.499Z,13.48
2018-07-08T03:07:42.427Z,13.58
2018-07-08T03:08:42.344Z,13.71
2018-07-08T03:09:42.279Z,13.71
2018-07-08T03:10:42.195Z,13.55
2018-07-08T03:11:42.133Z,13.56
2018-07-08T03:12:42.051Z,13.68
2018-07-08T03:13:41.978Z,13.62
2018-07-08T03:14:41.893Z,13.71
2018-07-08T03:15:41.828Z,13.71
2018-07-08T03:16:41.741Z,13.62
2018-07-08T03:17:41.673Z,13.62
2018-07-08T03:18:41.590Z,13.62
2018-07-08T03:19:41.521Z,13.63
2018-07-08T03:20:41.445Z,13.61
2018-07-08T03:21:41.370Z,13.55
2018-07-08T03:22:41.291Z,13.38
2018-07-08T03:23:41.219Z,13.29
2018-07-08T03:24:41.135Z,13.22
2018-07-08T03:25:41.070Z,13.25
2018-07-08T03:26:40.985Z,13.10
2018-07-08T03:27:40.915Z,13.03
2018-07-08T03:28:40.833Z,13.04
2018-07-08T03:29:40.765Z,13.04
2018-07-08T03:30:40.682Z,13.04
2018-07-08T03:31:40.616Z,12.99
2018-07-08T03:32:40.531Z,13.00
2018-07-08T03:33:40.455Z,13.00
2018-07-08T03:34:40.380Z,12.99
2018-07-08T03:35:40.311Z,13.03
2018-07-08T03:36:40.226Z,13.03
2018-07-08T03:37:40.163Z,13.03
2018-07-08T03:38:40.075Z,13.07
2018-07-08T03:39:40.005Z,13.03
2018-07-08T03:40:39.925Z,12.99
2018-07-08T03:41:39.860Z,13.02
2018-07-08T03:42:39.777Z,13.02
2018-07-08T03:43:39.703Z,13.04
2018-07-08T03:44:39.622Z,13.03
2018-07-08T03:45:39.559Z,13.17
2018-07-08T03:46:39.467Z,13.04
2018-07-08T03:47:39.401Z,13.06
2018-07-08T03:48:39.316Z,13.04
2018-07-08T03:49:39.253Z,13.09
2018-07-08T03:50:39.168Z,13.00
2018-07-08T03:51:39.106Z,12.92
2018-07-08T03:52:39.016Z,12.92
2018-07-08T03:53:38.946Z,12.91
2018-07-08T03:54:38.876Z,12.92
2018-07-08T03:55:38.786Z,12.88
2018-07-08T03:56:38.718Z,12.89
2018-07-08T03:57:38.635Z,12.86
2018-07-08T03:58:38.563Z,12.88
2018-07-08T03:59:38.480Z,12.82
2018-07-08T04:00:38.415Z,12.81
2018-07-08T04:01:38.334Z,12.86
2018-07-08T04:02:38.268Z,12.89
2018-07-08T04:03:38.177Z,12.89
2018-07-08T04:04:38.109Z,13.00
2018-07-08T04:05:38.026Z,13.02
2018-07-08T04:06:37.958Z,13.00
2018-07-08T04:07:37.876Z,13.02
2018-07-08T04:08:37.808Z,13.07
2018-07-08T04:09:37.729Z,13.10
2018-07-08T04:10:37.656Z,13.18
2018-07-08T04:11:37.571Z,13.18
2018-07-08T04:12:37.503Z,13.25
2018-07-08T04:13:37.421Z,13.25
2018-07-08T04:14:37.350Z,13.32
2018-07-08T04:15:37.268Z,13.28
2018-07-08T04:16:37.200Z,13.36
2018-07-08T04:17:37.123Z,13.33
2018-07-08T04:18:37.057Z,13.38
2018-07-08T04:19:36.963Z,13.37
2018-07-08T04:20:36.896Z,13.45
2018-07-08T04:21:36.809Z,13.40
2018-07-08T04:22:36.746Z,13.50
2018-07-08T04:23:36.666Z,13.52
2018-07-08T04:24:36.590Z,13.45
2018-07-08T04:25:36.508Z,13.58
2018-07-08T04:26:36.439Z,13.63
2018-07-08T04:27:36.361Z,13.56
2018-07-08T04:28:36.287Z,13.71
2018-07-08T04:29:36.206Z,13.74
2018-07-08T04:30:36.139Z,13.65
2018-07-08T04:31:36.054Z,13.68
2018-07-08T04:32:35.983Z,13.76
2018-07-08T04:33:35.902Z,13.81
2018-07-08T04:34:35.834Z,13.87
2018-07-08T04:35:35.751Z,13.86
2018-07-08T04:36:35.687Z,13.91
2018-07-08T04:37:35.597Z,13.87
2018-07-08T04:38:35.540Z,13.98
2018-07-08T04:39:35.443Z,13.94
2018-07-08T04:40:35.381Z,13.92
2018-07-08T04:41:35.291Z,13.99
2018-07-08T04:42:35.266Z,14.01
2018-07-08T04:43:35.140Z,14.03
2018-07-08T04:44:35.074Z,14.13
2018-07-08T04:45:34.990Z,14.10
2018-07-08T04:46:34.924Z,14.14
2018-07-08T04:47:34.834Z,14.11
2018-07-08T04:48:34.772Z,14.16
2018-07-08T04:49:34.688Z,14.20
2018-07-08T04:50:34.616Z,14.11
2018-07-08T04:51:34.539Z,14.24
2018-07-08T04:52:34.467Z,14.27
2018-07-08T04:53:34.416Z,14.34
2018-07-08T04:54:34.321Z,14.29
2018-07-08T04:55:34.232Z,14.29
2018-07-08T04:56:34.167Z,14.39
2018-07-08T04:57:34.087Z,14.39
2018-07-08T04:58:34.017Z,14.34
2018-07-08T04:59:33.933Z,14.34
2018-07-08T05:00:33.858Z,14.39
2018-07-08T05:01:33.780Z,14.39
2018-07-08T05:02:33.714Z,14.39
2018-07-08T05:03:33.627Z,14.39
2018-07-08T05:04:33.556Z,14.47
2018-07-08T05:05:33.478Z,14.38
2018-07-08T05:06:33.462Z,14.41
2018-07-08T05:07:33.328Z,14.38
2018-07-08T05:08:33.256Z,14.44
2018-07-08T05:09:33.175Z,14.52
2018-07-08T05:10:33.110Z,14.47
2018-07-08T05:11:33.022Z,14.50
2018-07-08T05:12:32.960Z,14.50
2018-07-08T05:13:32.875Z,14.52
2018-07-08T05:14:32.810Z,14.56
2018-07-08T05:15:32.719Z,14.60
2018-07-08T05:16:32.656Z,14.56
2018-07-08T05:17:32.575Z,14.57
2018-07-08T05:18:32.503Z,14.60
2018-07-08T05:19:32.418Z,14.60
2018-07-08T05:20:32.432Z,14.65
2018-07-08T05:21:32.270Z,14.69
2018-07-08T05:22:32.204Z,14.69
2018-07-08T05:23:32.117Z,14.79
2018-07-08T05:24:32.052Z,14.79
2018-07-08T05:25:32.448Z,14.84
2018-07-08T05:26:31.901Z,14.83
2018-07-08T05:27:31.816Z,14.88
2018-07-08T05:28:31.749Z,14.94
2018-07-08T05:29:31.666Z,14.80
2018-07-08T05:30:31.596Z,14.94
2018-07-08T05:31:31.523Z,14.94
2018-07-08T05:32:31.454Z,15.01
2018-07-08T05:33:31.364Z,15.13
2018-07-08T05:34:31.301Z,15.12
2018-07-08T05:35:31.213Z,15.20
2018-07-08T05:36:31.144Z,15.18
2018-07-08T05:37:31.063Z,15.27
2018-07-08T05:38:30.986Z,15.26
2018-07-08T05:39:30.923Z,15.28
2018-07-08T05:40:30.835Z,15.34
2018-07-08T05:41:30.840Z,15.43
2018-07-08T05:42:30.684Z,15.39
2018-07-08T05:43:30.640Z,15.51
2018-07-08T05:44:30.533Z,15.46
2018-07-08T05:45:30.552Z,15.55
2018-07-08T05:46:30.386Z,15.64
2018-07-08T05:47:30.363Z,15.53
2018-07-08T05:48:30.234Z,15.60
2018-07-08T05:49:30.270Z,15.60
2018-07-08T05:50:30.147Z,15.67
2018-07-08T05:51:30.081Z,15.73
2018-07-08T05:52:29.934Z,15.83
2018-07-08T05:53:29.996Z,15.83
2018-07-08T05:54:29.784Z,15.88
2018-07-08T05:55:29.716Z,15.89
2018-07-08T05:56:29.635Z,15.94
2018-07-08T05:57:29.612Z,16.04
2018-07-08T05:58:29.486Z,16.06
2018-07-08T05:59:29.520Z,16.08
2018-07-08T06:00:29.340Z,16.15
2018-07-08T06:01:29.328Z,16.23
2018-07-08T06:02:29.183Z,16.29
2018-07-08T06:03:29.151Z,16.33
2018-07-08T06:04:29.057Z,16.42
2018-07-08T06:05:29.048Z,16.44
2018-07-08T06:06:28.888Z,16.35
2018-07-08T06:07:28.903Z,16.50
2018-07-08T06:08:28.737Z,16.53
2018-07-08T06:09:28.773Z,16.55
2018-07-08T06:10:28.587Z,16.65
2018-07-08T06:11:28.684Z,16.74
2018-07-08T06:12:28.434Z,16.81
2018-07-08T06:13:28.491Z,16.78
2018-07-08T06:14:28.290Z,16.85
2018-07-08T06:15:28.369Z,16.93
2018-07-08T06:16:28.137Z,16.90
2018-07-08T06:17:28.213Z,16.98
2018-07-08T06:18:27.993Z,17.07
2018-07-08T06:19:28.023Z,17.20
2018-07-08T06:20:27.837Z,17.14
2018-07-08T06:21:27.831Z,17.29
2018-07-08T06:22:27.691Z,17.18
2018-07-08T06:23:27.641Z,17.26
2018-07-08T06:24:27.541Z,17.20
2018-07-08T06:25:27.553Z,17.36
2018-07-08T06:26:27.395Z,17.36
2018-07-08T06:27:27.361Z,17.43
2018-07-08T06:28:27.244Z,17.47
2018-07-08T06:29:27.272Z,17.44
2018-07-08T06:30:27.095Z,17.48
2018-07-08T06:31:27.023Z,17.60
2018-07-08T06:32:26.946Z,17.54
2018-07-08T06:33:26.994Z,17.60
2018-07-08T06:34:26.801Z,17.58
2018-07-08T06:35:26.908Z,17.64
2018-07-08T06:36:26.656Z,17.69
2018-07-08T06:37:26.711Z,17.70
2018-07-08T06:38:26.505Z,17.77
2018-07-08T06:39:26.523Z,17.84
2018-07-08T06:40:26.354Z,17.84
2018-07-08T06:41:26.433Z,17.98
2018-07-08T06:42:26.205Z,17.95
2018-07-08T06:43:26.241Z,17.94
2018-07-08T06:44:26.057Z,17.96
2018-07-08T06:45:26.185Z,18.07
2018-07-08T06:46:25.911Z,18.06
2018-07-08T06:47:25.964Z,18.09
2018-07-08T06:48:25.762Z,18.21
2018-07-08T06:49:25.875Z,18.18
2018-07-08T06:50:25.617Z,18.29
2018-07-08T06:51:25.686Z,18.25
2018-07-08T06:52:25.466Z,18.34
2018-07-08T06:53:25.402Z,18.37
2018-07-08T06:54:25.520Z,18.42
2018-07-08T06:55:25.246Z,18.55
2018-07-08T06:56:25.310Z,18.55
2018-07-08T06:57:25.101Z,18.53
2018-07-08T06:58:25.218Z,18.59
2018-07-08T06:59:24.959Z,18.68
2018-07-08T07:00:25.030Z,18.79
2018-07-08T07:01:24.804Z,18.80
2018-07-08T07:02:24.839Z,18.82
2018-07-08T07:03:24.658Z,18.82
2018-07-08T07:04:24.752Z,18.89
2018-07-08T07:05:24.511Z,19.02
2018-07-08T07:06:24.559Z,19.08
2018-07-08T07:07:24.364Z,19.23
2018-07-08T07:08:24.470Z,19.23
2018-07-08T07:09:24.218Z,19.31
2018-07-08T07:10:24.274Z,19.17
2018-07-08T07:11:24.072Z,19.31
2018-07-08T07:12:24.190Z,19.28
2018-07-08T07:13:23.927Z,19.24
2018-07-08T07:14:23.997Z,19.31
2018-07-08T07:15:23.785Z,19.27
2018-07-08T07:16:23.811Z,19.36
2018-07-08T07:17:23.670Z,19.45
2018-07-08T07:18:23.718Z,19.45
2018-07-08T07:19:23.486Z,19.46
2018-07-08T07:20:23.529Z,19.43
2018-07-08T07:21:23.345Z,19.43
2018-07-08T07:22:23.436Z,19.50
2018-07-08T07:23:23.194Z,19.64
2018-07-08T07:24:23.257Z,19.65
2018-07-08T07:25:23.053Z,19.75
2018-07-08T07:26:23.161Z,19.90
2018-07-08T07:27:22.904Z,20.00
2018-07-08T07:28:22.899Z,20.03
2018-07-08T07:29:22.755Z,20.13
2018-07-08T07:30:22.881Z,20.06
2018-07-08T07:31:22.612Z,20.27
2018-07-08T07:32:22.541Z,20.37
2018-07-08T07:33:22.467Z,20.43
2018-07-08T07:34:22.497Z,20.50
2018-07-08T07:35:22.428Z,20.59
2018-07-08T07:36:23.437Z,20.53
2018-07-08T07:37:22.750Z,20.59
2018-07-08T07:38:22.320Z,20.65
2018-07-08T07:39:22.034Z,20.62
2018-07-08T07:40:22.132Z,20.66
2018-07-08T07:41:21.888Z,20.74
2018-07-08T07:42:21.941Z,20.76
2018-07-08T07:43:21.743Z,20.80
2018-07-08T07:44:21.755Z,20.79
2018-07-08T07:45:21.608Z,20.87
2018-07-08T07:46:21.663Z,20.93
2018-07-08T07:47:21.458Z,21.14
2018-07-08T07:48:21.572Z,21.12
2018-07-08T07:49:21.312Z,21.20
2018-07-08T07:50:21.388Z,21.36
2018-07-08T07:51:21.177Z,21.41
2018-07-08T07:52:21.105Z,21.60
2018-07-08T07:53:21.026Z,21.67
2018-07-08T07:54:20.961Z,21.74
2018-07-08T07:55:21.009Z,21.84
2018-07-08T07:56:20.810Z,21.79
2018-07-08T07:57:20.917Z,21.98
2018-07-08T07:58:20.669Z,22.10
2018-07-08T07:59:20.602Z,21.95
2018-07-08T08:00:20.742Z,22.12
2018-07-08T08:01:20.454Z,22.22
2018-07-08T08:02:20.384Z,22.24
2018-07-08T08:03:20.451Z,22.46
2018-07-08T08:04:20.240Z,22.44
2018-07-08T08:05:20.363Z,22.54
2018-07-08T08:06:20.096Z,22.60
2018-07-08T08:07:20.032Z,22.59
2018-07-08T08:08:20.078Z,22.54
2018-07-08T08:09:19.885Z,22.63
2018-07-08T08:10:19.819Z,22.75
2018-07-08T08:11:19.891Z,22.81
2018-07-08T08:12:19.672Z,22.87
2018-07-08T08:13:19.804Z,22.96
2018-07-08T08:14:19.538Z,22.99
2018-07-08T08:15:19.616Z,23.12
2018-07-08T08:16:19.395Z,23.18
2018-07-08T08:17:19.522Z,23.22
2018-07-08T08:18:19.253Z,23.17
2018-07-08T08:19:19.182Z,23.33
2018-07-08T08:20:19.112Z,23.38
2018-07-08T08:21:19.135Z,23.45
2018-07-08T08:22:18.970Z,23.49
2018-07-08T08:23:19.053Z,23.48
2018-07-08T08:24:18.833Z,23.60
2018-07-08T08:25:18.964Z,23.61
2018-07-08T08:26:18.696Z,23.78
2018-07-08T08:27:18.775Z,23.72
2018-07-08T08:28:18.554Z,23.90
2018-07-08T08:29:18.482Z,23.90
2018-07-08T08:30:18.414Z,23.95
2018-07-08T08:31:18.503Z,24.02
2018-07-08T08:32:18.274Z,24.02
2018-07-08T08:33:18.407Z,24.16
2018-07-08T08:34:18.137Z,24.22
2018-07-08T08:35:18.071Z,24.16
2018-07-08T08:36:17.996Z,24.20
2018-07-08T08:37:18.023Z,24.30
2018-07-08T08:38:17.939Z,24.23
2018-07-08T08:39:17.833Z,24.26
2018-07-08T08:40:17.749Z,24.29
2018-07-08T08:41:17.747Z,24.26
2018-07-08T08:42:17.581Z,24.37
2018-07-08T08:43:17.553Z,24.38
2018-07-08T08:44:17.444Z,24.26
2018-07-08T08:45:17.463Z,24.22
2018-07-08T08:46:17.312Z,24.23
2018-07-08T08:47:17.272Z,24.12
2018-07-08T08:48:17.172Z,24.08
2018-07-08T08:49:17.184Z,24.19
2018-07-08T08:50:17.031Z,24.23
2018-07-08T08:51:16.993Z,24.30
2018-07-08T08:52:16.892Z,24.40
2018-07-08T08:53:16.904Z,24.42
2018-07-08T08:54:16.755Z,24.48
2018-07-08T08:55:16.715Z,24.47
2018-07-08T08:56:16.618Z,24.56
2018-07-08T08:57:16.626Z,24.60
2018-07-08T08:58:16.540Z,24.71
2018-07-08T08:59:16.433Z,24.85
2018-07-08T09:00:16.350Z,24.90
2018-07-08T09:01:16.275Z,24.93
2018-07-08T09:02:16.250Z,25.04
2018-07-08T09:03:16.136Z,24.98
2018-07-08T09:04:16.172Z,25.08
2018-07-08T09:05:16.001Z,25.08
2018-07-08T09:06:15.968Z,25.12
2018-07-08T09:07:15.865Z,25.20
2018-07-08T09:08:15.880Z,25.27
2018-07-08T09:09:15.729Z,25.27
2018-07-08T09:10:15.661Z,25.17
2018-07-08T09:11:15.697Z,25.19
2018-07-08T09:12:15.525Z,25.30
2018-07-08T09:13:15.456Z,25.28
2018-07-08T09:14:15.409Z,25.41
2018-07-08T09:15:15.320Z,25.52
2018-07-08T09:16:15.323Z,25.68
2018-07-08T09:17:15.238Z,25.86
2018-07-08T09:18:15.233Z,25.89
2018-07-08T09:19:15.049Z,25.77
2018-07-08T09:20:14.983Z,25.84
2018-07-08T09:21:14.915Z,25.93
2018-07-08T09:22:14.950Z,26.02
2018-07-08T09:23:14.782Z,26.02
2018-07-08T09:24:14.762Z,25.94
2018-07-08T09:25:14.645Z,25.87
2018-07-08T09:26:14.676Z,25.86
2018-07-08T09:27:14.509Z,25.86
2018-07-08T09:28:14.485Z,25.87
2018-07-08T09:29:14.408Z,25.87
2018-07-08T09:30:14.310Z,25.89
2018-07-08T09:31:14.299Z,25.82
2018-07-08T09:32:14.173Z,25.89
2018-07-08T09:33:14.210Z,25.86
2018-07-08T09:34:14.040Z,25.93
2018-07-08T09:35:14.016Z,25.92
2018-07-08T09:36:13.903Z,25.99
2018-07-08T09:37:13.837Z,26.08
2018-07-08T09:38:13.769Z,26.21
2018-07-08T09:39:13.909Z,26.18
2018-07-08T09:40:13.636Z,26.31
2018-07-08T09:41:13.652Z,26.32
2018-07-08T09:42:13.502Z,26.32
2018-07-08T09:43:13.461Z,26.38
2018-07-08T09:44:13.368Z,26.35
2018-07-08T09:45:13.373Z,26.32
2018-07-08T09:46:13.233Z,26.35
2018-07-08T09:47:13.169Z,26.34
2018-07-08T09:48:13.098Z,26.24
2018-07-08T09:49:13.092Z,26.21
2018-07-08T09:50:12.965Z,26.31
2018-07-08T09:51:13.004Z,26.28
2018-07-08T09:52:12.828Z,26.23
2018-07-08T09:53:12.814Z,26.12
2018-07-08T09:54:12.702Z,26.27
2018-07-08T09:55:12.727Z,26.35
2018-07-08T09:56:12.569Z,26.31
2018-07-08T09:57:12.535Z,26.28
2018-07-08T09:58:12.438Z,26.32
2018-07-08T09:59:12.375Z,26.39
2018-07-08T10:00:12.300Z,26.45
2018-07-08T10:01:12.382Z,26.55
2018-07-08T10:02:12.169Z,26.61
2018-07-08T10:03:12.164Z,26.60
2018-07-08T10:04:12.031Z,26.67
2018-07-08T10:05:12.077Z,26.71
2018-07-08T10:06:11.899Z,26.79
2018-07-08T10:07:11.891Z,26.82
2018-07-08T10:08:11.762Z,26.95
2018-07-08T10:09:11.812Z,26.99
2018-07-08T10:10:11.631Z,27.01
2018-07-08T10:11:11.607Z,27.07
2018-07-08T10:12:11.504Z,27.17
2018-07-08T10:13:11.516Z,26.98
2018-07-08T10:14:11.477Z,26.99
2018-07-08T10:15:11.328Z,27.09
2018-07-08T10:16:11.234Z,27.12
2018-07-08T10:17:11.240Z,27.12
2018-07-08T10:18:11.103Z,27.19
2018-07-08T10:19:11.152Z,27.24
2018-07-08T10:20:11.004Z,27.36
2018-07-08T10:21:10.959Z,27.38
2018-07-08T10:22:10.837Z,27.41
2018-07-08T10:23:10.870Z,27.35
2018-07-08T10:24:10.703Z,27.35
2018-07-08T10:25:10.687Z,27.32
2018-07-08T10:26:10.574Z,27.36
2018-07-08T10:27:10.504Z,27.44
2018-07-08T10:28:10.438Z,27.44
2018-07-08T10:29:10.401Z,27.42
2018-07-08T10:30:10.307Z,27.57
2018-07-08T10:31:10.313Z,27.54
2018-07-08T10:32:10.174Z,27.39
2018-07-08T10:33:10.224Z,27.50
2018-07-08T10:34:10.046Z,27.49
2018-07-08T10:35:10.032Z,27.60
2018-07-08T10:36:09.911Z,27.61
2018-07-08T10:37:09.942Z,27.51
2018-07-08T10:38:09.836Z,27.62
2018-07-08T10:39:09.755Z,27.72
2018-07-08T10:40:09.647Z,27.79
2018-07-08T10:41:09.664Z,27.76
2018-07-08T10:42:09.516Z,27.80
2018-07-08T10:43:09.472Z,27.79
2018-07-08T10:44:09.387Z,27.87
2018-07-08T10:45:09.389Z,27.92
2018-07-08T10:46:09.260Z,27.94
2018-07-08T10:47:09.299Z,27.91
2018-07-08T10:48:09.122Z,27.95
2018-07-08T10:49:09.104Z,27.82
2018-07-08T10:50:09.063Z,27.95
2018-07-08T10:51:09.017Z,27.92
2018-07-08T10:52:08.859Z,27.91
2018-07-08T10:53:08.827Z,27.98
2018-07-08T10:54:08.730Z,27.98
2018-07-08T10:55:08.737Z,27.92
2018-07-08T10:56:08.606Z,28.07
2018-07-08T10:57:08.650Z,28.11
2018-07-08T10:58:08.468Z,28.19
2018-07-08T10:59:08.458Z,28.26
2018-07-08T11:00:08.336Z,28.22
2018-07-08T11:01:08.369Z,28.24
2018-07-08T11:02:08.206Z,28.22
2018-07-08T11:03:08.141Z,28.25
2018-07-08T11:04:08.185Z,28.16
2018-07-08T11:05:08.015Z,28.25
2018-07-08T11:06:08.005Z,28.34
2018-07-08T11:07:07.879Z,28.36
2018-07-08T11:08:07.814Z,28.47
2018-07-08T11:09:07.810Z,28.47
2018-07-08T11:10:07.687Z,28.39
2018-07-08T11:11:07.722Z,28.36
2018-07-08T11:12:07.555Z,28.32
2018-07-08T11:13:07.530Z,28.39
2018-07-08T11:14:07.423Z,28.34
2018-07-08T11:15:07.440Z,28.32
2018-07-08T11:16:07.294Z,28.36
2018-07-08T11:17:07.249Z,28.31
2018-07-08T11:18:07.210Z,28.38
2018-07-08T11:19:07.161Z,28.34
2018-07-08T11:20:07.039Z,28.44
2018-07-08T11:21:06.978Z,28.38
2018-07-08T11:22:06.910Z,28.36
2018-07-08T11:23:06.887Z,28.24
2018-07-08T11:24:06.778Z,28.16
2018-07-08T11:25:06.792Z,28.16
2018-07-08T11:26:06.649Z,28.20
2018-07-08T11:27:06.604Z,28.22
2018-07-08T11:28:06.514Z,28.22
2018-07-08T11:29:06.520Z,28.17
2018-07-08T11:30:06.384Z,28.24
2018-07-08T11:31:06.428Z,28.29
2018-07-08T11:32:06.257Z,28.34
2018-07-08T11:33:06.236Z,28.32
2018-07-08T11:34:06.128Z,28.49
2018-07-08T11:35:06.147Z,28.41
2018-07-08T11:36:05.995Z,28.29
2018-07-08T11:37:06.062Z,28.32
2018-07-08T11:38:05.863Z,28.35
2018-07-08T11:39:05.868Z,28.32
2018-07-08T11:40:05.735Z,28.32
2018-07-08T11:41:05.778Z,28.36
2018-07-08T11:42:05.606Z,28.35
2018-07-08T11:43:05.588Z,28.44
2018-07-08T11:44:05.478Z,28.41
2018-07-08T11:45:05.575Z,28.34
2018-07-08T11:46:05.347Z,28.36
2018-07-08T11:47:05.307Z,28.24
2018-07-08T11:48:05.216Z,28.13
2018-07-08T11:49:05.221Z,28.25
2018-07-08T11:50:05.092Z,28.19
2018-07-08T11:51:05.134Z,28.31
2018-07-08T11:52:04.952Z,28.26
2018-07-08T11:53:04.941Z,28.24
2018-07-08T11:54:04.832Z,28.02
2018-07-08T11:55:04.766Z,27.92
2018-07-08T11:56:04.763Z,27.77
2018-07-08T11:57:04.634Z,27.77
2018-07-08T11:58:04.676Z,27.83
2018-07-08T11:59:04.503Z,27.74
2018-07-08T12:00:04.478Z,27.84
2018-07-08T12:01:04.372Z,27.80
2018-07-08T12:02:04.393Z,27.92
2018-07-08T12:03:04.244Z,28.09
2018-07-08T12:04:04.305Z,28.14
2018-07-08T12:05:04.127Z,28.34
2018-07-08T12:06:04.108Z,28.31
2018-07-08T12:07:03.984Z,28.29
2018-07-08T12:08:04.023Z,28.46
2018-07-08T12:09:03.858Z,28.50
2018-07-08T12:10:03.833Z,28.44
2018-07-08T12:11:03.726Z,28.57
2018-07-08T12:12:03.744Z,28.49
2018-07-08T12:13:03.597Z,28.49
2018-07-08T12:14:03.654Z,28.61
2018-07-08T12:15:03.469Z,28.34
2018-07-08T12:16:03.464Z,28.46
2018-07-08T12:17:03.337Z,28.39
2018-07-08T12:18:03.374Z,28.38
2018-07-08T12:19:03.208Z,28.34
2018-07-08T12:20:03.182Z,28.44
2018-07-08T12:21:03.079Z,28.43
2018-07-08T12:22:03.092Z,28.43
2018-07-08T12:23:02.948Z,28.41
2018-07-08T12:24:02.885Z,28.41
2018-07-08T12:25:02.912Z,28.38
2018-07-08T12:26:02.756Z,28.43
2018-07-08T12:27:02.720Z,28.46
2018-07-08T12:28:02.628Z,28.43
2018-07-08T12:29:02.631Z,28.56
2018-07-08T12:30:02.496Z,28.68
2018-07-08T12:31:02.541Z,28.72
2018-07-08T12:32:02.367Z,28.78
2018-07-08T12:33:02.356Z,28.91
2018-07-08T12:34:02.238Z,28.93
2018-07-08T12:35:02.260Z,28.86
2018-07-08T12:36:02.109Z,28.91
2018-07-08T12:37:02.071Z,28.93
2018-07-08T12:38:01.981Z,29.09
2018-07-08T12:39:01.984Z,29.01
2018-07-08T12:40:01.849Z,29.04
2018-07-08T12:41:01.901Z,29.04
2018-07-08T12:42:01.721Z,29.01
2018-07-08T12:43:01.705Z,28.88
2018-07-08T12:44:01.635Z,28.91
2018-07-08T12:45:01.623Z,28.93
2018-07-08T12:46:01.468Z,28.90
2018-07-08T12:47:01.427Z,28.93
2018-07-08T12:48:01.333Z,28.86
2018-07-08T12:49:01.338Z,28.87
2018-07-08T12:50:01.206Z,28.90
2018-07-08T12:51:01.140Z,28.94
2018-07-08T12:52:01.077Z,28.86